createdAt,value
2022-10-17T00:02:50.048Z,13.97
2022-10-17T00:05:54.305Z,13.23
2022-10-17T00:08:57.251Z,13.17
2022-10-17T00:12:00.332Z,11.67
2022-10-17T00:15:07.535Z,11.17
2022-10-17T00:18:10.450Z,10.47
2022-10-17T00:21:18.770Z,11.00
2022-10-17T00:24:21.697Z,10.87
2022-10-17T00:27:24.933Z,11.03
2022-10-17T00:30:28.152Z,10.83
2022-10-17T00:33:31.786Z,10.67
2022-10-17T00:36:36.228Z,10.80
2022-10-17T00:39:39.643Z,9.80
2022-10-17T00:42:42.853Z,9.20
2022-10-17T00:45:45.824Z,9.47
2022-10-17T00:48:50.981Z,10.10
2022-10-17T00:51:58.659Z,10.10
2022-10-17T00:55:05.856Z,10.43
2022-10-17T00:58:08.939Z,10.57
2022-10-17T01:01:12.090Z,9.70
2022-10-17T01:04:18.549Z,10.43
2022-10-17T01:07:23.739Z,9.63
2022-10-17T01:10:35.234Z,9.40
2022-10-17T01:13:47.320Z,10.10
2022-10-17T01:17:00.085Z,9.40
2022-10-17T01:20:49.473Z,8.57
2022-10-17T01:24:26.340Z,10.53
2022-10-17T01:27:50.619Z,9.93
2022-10-17T01:31:04.304Z,11.13
2022-10-17T01:34:15.757Z,11.13
2022-10-17T01:37:26.723Z,9.27
2022-10-17T01:40:38.731Z,9.63
2022-10-17T01:43:45.893Z,8.17
2022-10-17T01:46:52.393Z,9.10
2022-10-17T01:50:00.351Z,8.50
2022-10-17T01:53:10.360Z,9.20
2022-10-17T01:56:16.313Z,9.33
2022-10-17T01:59:26.725Z,9.37
2022-10-17T02:02:32.675Z,8.87
2022-10-17T02:05:40.450Z,7.53
2022-10-17T02:08:46.130Z,8.63
2022-10-17T02:12:05.064Z,8.90
2022-10-17T02:15:26.139Z,11.17
2022-10-17T02:19:00.582Z,10.30
2022-10-17T02:22:17.427Z,9.27
2022-10-17T02:25:32.472Z,9.37
2022-10-17T02:28:45.668Z,10.23
2022-10-17T02:31:52.776Z,10.20
2022-10-17T02:34:59.466Z,9.90
2022-10-17T02:38:06.516Z,9.87
2022-10-17T02:41:15.566Z,9.30
2022-10-17T02:44:19.204Z,8.63
2022-10-17T02:47:27.745Z,8.17
2022-10-17T02:50:44.710Z,7.90
2022-10-17T02:53:58.877Z,8.37
2022-10-17T02:57:09.056Z,7.67
2022-10-17T03:00:15.798Z,7.23
2022-10-17T03:03:25.490Z,7.80
2022-10-17T03:06:30.129Z,7.33
2022-10-17T03:09:33.061Z,7.30
2022-10-17T03:12:36.059Z,8.00
2022-10-17T03:15:39.383Z,8.77
2022-10-17T03:18:45.389Z,8.70
2022-10-17T03:21:52.631Z,8.03
2022-10-17T03:24:55.816Z,7.67
2022-10-17T03:28:00.467Z,8.47
2022-10-17T03:31:08.802Z,7.43
2022-10-17T03:34:12.751Z,8.00
2022-10-17T03:37:17.015Z,7.90
2022-10-17T03:40:20.489Z,8.77
2022-10-17T03:43:23.904Z,9.63
2022-10-17T03:46:26.900Z,8.20
2022-10-17T03:49:32.261Z,8.40
2022-10-17T03:52:36.866Z,7.50
2022-10-17T03:55:40.218Z,8.73
2022-10-17T03:58:44.201Z,9.00
2022-10-17T04:01:48.166Z,8.13
2022-10-17T04:04:51.382Z,8.50
2022-10-17T04:07:57.820Z,8.77
2022-10-17T04:11:22.922Z,8.17
2022-10-17T04:14:26.034Z,9.13
2022-10-17T04:17:35.892Z,8.53
2022-10-17T04:20:41.469Z,10.20
2022-10-17T04:23:46.289Z,9.67
2022-10-17T04:27:02.887Z,9.43
2022-10-17T04:30:09.875Z,10.00
2022-10-17T04:33:12.956Z,10.80
2022-10-17T04:36:18.367Z,9.10
2022-10-17T04:39:22.760Z,24.30
2022-10-17T04:42:26.051Z,12.37
2022-10-17T04:45:30.479Z,12.03
2022-10-17T04:48:38.994Z,11.60
2022-10-17T04:51:42.073Z,10.03
2022-10-17T04:54:51.808Z,9.50
2022-10-17T04:57:54.961Z,10.80
2022-10-17T05:00:58.014Z,9.83
2022-10-17T05:04:04.959Z,9.40
2022-10-17T05:07:08.059Z,11.07
2022-10-17T05:10:15.356Z,9.50
2022-10-17T05:13:21.486Z,10.20
2022-10-17T05:16:26.194Z,10.63
2022-10-17T05:19:30.052Z,10.87
2022-10-17T05:22:36.027Z,9.63
2022-10-17T05:25:42.499Z,10.20
2022-10-17T05:28:45.636Z,9.00
2022-10-17T05:31:48.961Z,10.27
2022-10-17T05:34:52.051Z,8.60
2022-10-17T05:37:56.851Z,9.30
2022-10-17T05:41:04.976Z,10.53
2022-10-17T05:44:08.848Z,9.67
2022-10-17T05:47:16.996Z,10.07
2022-10-17T05:50:21.485Z,10.63
2022-10-17T05:53:39.236Z,10.23
2022-10-17T05:56:52.593Z,10.93
2022-10-17T05:59:57.582Z,9.93
2022-10-17T06:03:01.025Z,10.13
2022-10-17T06:06:05.936Z,10.93
2022-10-17T06:09:09.872Z,9.47
2022-10-17T06:12:17.235Z,10.30
2022-10-17T06:15:21.580Z,10.80
2022-10-17T06:18:31.917Z,11.70
2022-10-17T06:21:37.724Z,10.73
2022-10-17T06:24:48.240Z,10.97
2022-10-17T06:31:00.940Z,14.87
2022-10-17T06:34:04.215Z,11.87
2022-10-17T06:37:07.504Z,14.17
2022-10-17T06:40:15.115Z,13.30
2022-10-17T06:43:20.664Z,13.37
2022-10-17T06:46:53.532Z,11.90
2022-10-17T06:49:57.667Z,12.73
2022-10-17T06:53:06.799Z,12.53
2022-10-17T06:56:26.797Z,12.50
2022-10-17T06:59:39.541Z,13.40
2022-10-17T07:02:48.749Z,12.87
2022-10-17T07:05:52.916Z,13.33
2022-10-17T07:08:56.387Z,16.13
2022-10-17T07:12:00.016Z,10.97
2022-10-17T07:15:05.419Z,11.10
2022-10-17T07:18:08.610Z,11.37
2022-10-17T07:21:12.025Z,11.63
2022-10-17T07:24:16.663Z,11.30
2022-10-17T07:27:23.928Z,13.93
2022-10-17T07:30:28.780Z,13.80
2022-10-17T07:36:54.595Z,13.23
2022-10-17T07:39:57.585Z,11.20
2022-10-17T07:43:01.517Z,12.23
2022-10-17T07:46:08.276Z,15.82
2022-10-17T07:49:11.355Z,11.32
2022-10-17T07:52:19.001Z,10.70
2022-10-17T07:55:22.264Z,10.23
2022-10-17T07:58:25.848Z,12.52
2022-10-17T08:01:30.157Z,9.88
2022-10-17T08:04:33.395Z,8.73
2022-10-17T08:07:36.382Z,8.63
2022-10-17T08:10:39.296Z,7.18
2022-10-17T08:13:43.393Z,6.55
2022-10-17T08:16:47.668Z,6.45
2022-10-17T08:19:50.655Z,7.35
2022-10-17T08:22:54.675Z,6.30
2022-10-17T08:26:00.703Z,6.72
2022-10-17T08:29:06.447Z,6.93
2022-10-17T08:32:10.785Z,6.35
2022-10-17T08:35:14.692Z,9.20
2022-10-17T08:38:20.825Z,6.20
2022-10-17T08:41:52.643Z,5.95
2022-10-17T08:45:04.375Z,6.25
2022-10-17T08:48:15.278Z,6.45
2022-10-17T08:51:22.923Z,5.93
2022-10-17T08:54:40.425Z,5.82
2022-10-17T08:57:43.613Z,5.95
2022-10-17T09:00:56.838Z,6.72
2022-10-17T09:04:36.082Z,5.43
2022-10-17T09:07:50.485Z,7.43
2022-10-17T09:10:59.489Z,6.10
2022-10-17T09:14:18.955Z,4.72
2022-10-17T09:17:37.241Z,4.78
2022-10-17T09:20:45.947Z,6.05
2022-10-17T09:23:59.664Z,5.28
2022-10-17T09:27:24.758Z,6.05
2022-10-17T09:30:45.076Z,5.43
2022-10-17T09:33:55.064Z,5.22
2022-10-17T09:37:01.968Z,5.35
2022-10-17T09:40:09.970Z,4.93
2022-10-17T09:43:16.083Z,6.25
2022-10-17T09:46:26.451Z,6.15
2022-10-17T09:49:35.463Z,4.03
2022-10-17T09:52:47.592Z,4.80
2022-10-17T09:55:55.451Z,5.00
2022-10-17T09:58:59.898Z,4.05
2022-10-17T10:02:20.674Z,4.40
2022-10-17T10:05:23.692Z,3.85
2022-10-17T10:08:31.743Z,4.22
2022-10-17T10:11:49.858Z,4.97
2022-10-17T10:14:54.780Z,4.10
2022-10-17T10:17:58.386Z,4.95
2022-10-17T10:21:12.371Z,4.45
2022-10-17T10:24:16.620Z,5.18
2022-10-17T10:27:20.590Z,5.35
2022-10-17T10:30:29.762Z,5.13
2022-10-17T10:33:40.390Z,4.95
2022-10-17T10:36:57.749Z,3.95
2022-10-17T10:40:05.825Z,4.22
2022-10-17T10:43:17.938Z,4.70
2022-10-17T10:46:24.180Z,5.18
2022-10-17T10:49:35.748Z,5.43
2022-10-17T10:52:45.775Z,4.00
2022-10-17T10:55:55.290Z,4.88
2022-10-17T10:59:05.333Z,4.00
2022-10-17T11:02:17.000Z,4.68
2022-10-17T11:05:28.468Z,3.42
2022-10-17T11:08:39.726Z,4.30
2022-10-17T11:11:51.065Z,3.90
2022-10-17T11:15:00.714Z,4.57
2022-10-17T11:18:08.080Z,3.58
2022-10-17T11:21:17.003Z,4.05
2022-10-17T11:24:25.952Z,3.47
2022-10-17T11:27:31.935Z,4.30
2022-10-17T11:30:46.275Z,3.40
2022-10-17T11:33:54.109Z,4.05
2022-10-17T11:37:03.205Z,3.75
2022-10-17T11:40:19.158Z,3.60
2022-10-17T11:43:35.040Z,3.75
2022-10-17T11:46:41.346Z,3.55
2022-10-17T11:49:51.231Z,3.90
2022-10-17T11:52:59.517Z,3.83
2022-10-17T11:56:03.618Z,4.00
2022-10-17T11:59:39.724Z,3.90
2022-10-17T12:02:49.663Z,4.30
2022-10-17T12:06:00.833Z,4.00
2022-10-17T12:09:14.022Z,4.05
2022-10-17T12:12:29.136Z,4.40
2022-10-17T12:15:33.842Z,4.13
2022-10-17T12:18:36.840Z,4.43
2022-10-17T12:21:56.943Z,4.78
2022-10-17T12:25:02.649Z,4.88
2022-10-17T12:28:18.947Z,4.10
2022-10-17T12:31:33.672Z,7.57
2022-10-17T12:34:37.630Z,5.13
2022-10-17T12:38:29.734Z,5.45
2022-10-17T12:41:54.773Z,4.30
2022-10-17T12:44:57.781Z,5.78
2022-10-17T12:48:02.070Z,5.45
2022-10-17T12:54:37.956Z,4.95
2022-10-17T12:57:58.954Z,3.70
2022-10-17T13:01:23.055Z,3.97
2022-10-17T13:04:28.819Z,4.35
2022-10-17T13:07:34.664Z,3.80
2022-10-17T13:10:43.087Z,4.68
2022-10-17T13:13:51.983Z,3.85
2022-10-17T13:16:58.358Z,4.07
2022-10-17T13:20:03.154Z,3.90
2022-10-17T13:23:06.108Z,4.45
2022-10-17T13:26:16.599Z,4.05
2022-10-17T13:29:21.851Z,4.18
2022-10-17T13:32:27.472Z,3.67
2022-10-17T13:35:58.797Z,4.38
2022-10-17T13:39:00.648Z,8.82
2022-10-17T13:42:04.063Z,6.63
2022-10-17T13:45:20.053Z,4.60
2022-10-17T13:48:27.072Z,4.50
2022-10-17T13:51:32.112Z,4.50
2022-10-17T13:54:41.046Z,4.30
2022-10-17T13:57:44.105Z,4.43
2022-10-17T14:00:49.133Z,3.65
2022-10-17T14:04:07.231Z,3.60
2022-10-17T14:07:26.346Z,4.35
2022-10-17T14:10:35.301Z,5.18
2022-10-17T14:13:38.355Z,4.30
2022-10-17T14:16:43.746Z,4.22
2022-10-17T14:19:55.464Z,4.10
2022-10-17T14:23:34.527Z,3.85
2022-10-17T14:26:48.991Z,3.75
2022-10-17T14:29:54.668Z,3.78
2022-10-17T14:33:01.154Z,3.10
2022-10-17T14:36:08.378Z,3.72
2022-10-17T14:39:23.445Z,4.47
2022-10-17T14:42:27.207Z,4.22
2022-10-17T14:45:32.669Z,4.85
2022-10-17T14:48:35.634Z,4.30
2022-10-17T14:51:50.382Z,3.47
2022-10-17T14:55:23.439Z,4.13
2022-10-17T14:58:28.835Z,3.65
2022-10-17T15:01:33.631Z,3.60
2022-10-17T15:04:36.535Z,4.13
2022-10-17T15:07:39.603Z,4.32
2022-10-17T15:10:45.584Z,4.05
2022-10-17T15:13:48.558Z,4.35
2022-10-17T15:16:51.576Z,3.90
2022-10-17T15:19:54.642Z,4.30
2022-10-17T15:22:59.803Z,4.90
2022-10-17T15:26:04.660Z,5.05
2022-10-17T15:29:07.796Z,5.00
2022-10-17T15:32:12.685Z,4.38
2022-10-17T15:35:16.104Z,6.05
2022-10-17T15:38:19.417Z,6.03
2022-10-17T15:41:26.122Z,4.93
2022-10-17T15:44:29.520Z,7.10
2022-10-17T15:47:34.424Z,5.60
2022-10-17T15:50:37.535Z,5.18
2022-10-17T15:53:40.817Z,5.45
2022-10-17T15:56:55.034Z,4.88
2022-10-17T16:00:00.529Z,5.32
2022-10-17T16:03:03.455Z,5.30
2022-10-17T16:06:10.729Z,6.05
2022-10-17T16:09:16.451Z,6.30
2022-10-17T16:12:28.064Z,8.57
2022-10-17T16:15:31.197Z,6.30
2022-10-17T16:18:34.208Z,6.28
2022-10-17T16:21:41.254Z,6.28
2022-10-17T16:24:44.442Z,5.95
2022-10-17T16:27:52.043Z,7.55
2022-10-17T16:30:55.855Z,8.68
2022-10-17T16:34:00.878Z,7.40
2022-10-17T16:37:03.879Z,7.97
2022-10-17T16:40:07.864Z,7.60
2022-10-17T16:43:14.435Z,7.95
2022-10-17T16:46:17.866Z,7.30
2022-10-17T16:49:20.819Z,7.20
2022-10-17T16:52:24.033Z,6.72
2022-10-17T16:55:27.001Z,6.43
2022-10-17T16:58:32.315Z,6.75
2022-10-17T17:01:35.266Z,5.90
2022-10-17T17:04:38.486Z,7.25
2022-10-17T17:07:41.436Z,8.68
2022-10-17T17:10:46.758Z,8.65
2022-10-17T17:13:51.444Z,8.70
2022-10-17T17:16:54.490Z,8.23
2022-10-17T17:19:57.427Z,7.82
2022-10-17T17:23:00.833Z,7.18
2022-10-17T17:26:06.920Z,8.25
2022-10-17T17:29:12.124Z,7.32
2022-10-17T17:32:15.087Z,7.32
2022-10-17T17:35:18.726Z,10.00
2022-10-17T17:38:21.894Z,8.50
2022-10-17T17:41:25.765Z,10.93
2022-10-17T17:44:30.111Z,10.70
2022-10-17T17:47:33.409Z,9.48
2022-10-17T17:50:38.283Z,7.50
2022-10-17T17:53:41.786Z,7.60
2022-10-17T17:56:44.757Z,7.32
2022-10-17T17:59:49.769Z,8.15
2022-10-17T18:02:52.832Z,8.88
2022-10-17T18:05:55.986Z,8.10
2022-10-17T18:09:01.316Z,6.72
2022-10-17T18:12:04.516Z,8.43
2022-10-17T18:15:10.033Z,9.05
2022-10-17T18:18:13.659Z,7.75
2022-10-17T18:21:16.836Z,8.70
2022-10-17T18:24:19.810Z,8.35
2022-10-17T18:27:22.770Z,8.15
2022-10-17T18:30:28.920Z,7.85
2022-10-17T18:33:36.063Z,9.68
2022-10-17T18:36:39.256Z,8.20
2022-10-17T18:39:42.527Z,8.15
2022-10-17T18:42:45.465Z,8.80
2022-10-17T18:45:49.714Z,9.68
2022-10-17T18:48:53.070Z,9.82
2022-10-17T18:51:56.031Z,8.60
2022-10-17T18:54:59.052Z,9.27
2022-10-17T18:58:02.047Z,9.98
2022-10-17T19:01:09.487Z,8.02
2022-10-17T19:04:13.317Z,7.93
2022-10-17T19:07:17.022Z,8.57
2022-10-17T19:10:19.999Z,9.90
2022-10-17T19:13:23.059Z,8.77
2022-10-17T19:16:30.594Z,9.65
2022-10-17T19:19:33.711Z,8.65
2022-10-17T19:22:36.615Z,9.13
2022-10-17T19:25:41.584Z,11.27
2022-10-17T19:28:45.200Z,13.95
2022-10-17T19:31:50.133Z,14.75
2022-10-17T19:34:53.095Z,12.55
2022-10-17T19:37:57.238Z,11.52
2022-10-17T19:44:08.155Z,17.30
2022-10-17T19:47:12.395Z,10.23
2022-10-17T19:50:15.634Z,10.60
2022-10-17T19:53:18.882Z,11.07
2022-10-17T19:56:23.464Z,12.15
2022-10-17T19:59:26.565Z,10.32
2022-10-17T20:02:31.024Z,10.43
2022-10-17T20:05:34.200Z,9.98
2022-10-17T20:08:38.314Z,11.25
2022-10-17T20:11:41.231Z,10.60
2022-10-17T20:14:44.138Z,10.32
2022-10-17T20:17:48.669Z,10.07
2022-10-17T20:20:51.890Z,9.85
2022-10-17T20:23:55.954Z,10.77
2022-10-17T20:26:59.275Z,11.15
2022-10-17T20:30:02.470Z,11.57
2022-10-17T20:33:06.871Z,10.50
2022-10-17T20:36:13.490Z,13.52
2022-10-17T20:39:19.297Z,13.20
2022-10-17T20:42:22.218Z,10.48
2022-10-17T20:45:37.571Z,11.48
2022-10-17T20:48:52.477Z,11.50
2022-10-17T20:51:55.785Z,12.10
2022-10-17T20:54:58.713Z,9.75
2022-10-17T20:58:01.712Z,10.55
2022-10-17T21:01:09.011Z,10.20
2022-10-17T21:04:43.978Z,10.80
2022-10-17T21:07:36.472Z,10.82
2022-10-17T21:10:39.564Z,10.07
2022-10-17T21:13:43.155Z,10.73
2022-10-17T21:16:46.121Z,11.35
2022-10-17T21:19:50.377Z,10.13
2022-10-17T21:22:53.372Z,10.20
2022-10-17T21:26:00.430Z,10.43
2022-10-17T21:29:05.744Z,10.32
2022-10-17T21:32:19.572Z,11.13
2022-10-17T21:35:35.239Z,10.85
2022-10-17T21:38:39.541Z,10.45
2022-10-17T21:41:43.596Z,10.00
2022-10-17T21:44:46.636Z,9.77
2022-10-17T21:48:11.615Z,11.35
2022-10-17T21:51:16.354Z,10.52
2022-10-17T21:54:22.835Z,10.55
2022-10-17T21:57:25.750Z,10.07
2022-10-17T22:00:28.687Z,10.32
2022-10-17T22:03:34.574Z,12.73
2022-10-17T22:06:41.383Z,10.70
2022-10-17T22:09:44.362Z,11.83
2022-10-17T22:12:48.580Z,10.90
2022-10-17T22:15:51.538Z,12.67
2022-10-17T22:19:00.519Z,11.63
2022-10-17T22:22:07.595Z,11.50
2022-10-17T22:25:10.820Z,11.95
2022-10-17T22:28:13.723Z,11.67
2022-10-17T22:31:16.827Z,13.83
2022-10-17T22:34:20.344Z,13.60
2022-10-17T22:37:25.003Z,12.27
2022-10-17T22:40:27.961Z,13.13
2022-10-17T22:43:31.053Z,15.80
2022-10-17T22:46:34.137Z,14.53
2022-10-17T22:49:37.065Z,12.80
2022-10-17T22:52:41.315Z,13.97
2022-10-17T22:55:44.261Z,16.20
2022-10-17T22:58:47.523Z,14.07
2022-10-17T23:01:50.684Z,12.65
2022-10-17T23:04:54.094Z,13.13
2022-10-17T23:07:58.340Z,15.50
2022-10-17T23:11:01.480Z,15.50
2022-10-17T23:14:04.402Z,15.75
2022-10-17T23:17:07.809Z,18.60
2022-10-17T23:20:11.799Z,16.63
2022-10-17T23:23:16.460Z,14.73
2022-10-17T23:26:19.916Z,12.27
2022-10-17T23:29:23.986Z,15.48
2022-10-17T23:32:27.039Z,13.27
2022-10-17T23:35:29.990Z,15.18
2022-10-17T23:38:34.273Z,14.15
2022-10-17T23:41:37.187Z,14.43
2022-10-17T23:44:40.277Z,14.93
2022-10-17T23:47:43.191Z,15.30
2022-10-17T23:50:46.354Z,12.98
2022-10-17T23:53:51.139Z,13.30
2022-10-17T23:56:56.191Z,14.95
2022-10-17T23:59:59.119Z,16.10
